createdAt,value
2023-05-04T00:00:55.517Z,3.73
2023-05-04T00:03:24.737Z,3.37
2023-05-04T00:05:55.032Z,3.53
2023-05-04T00:08:24.366Z,3.50
2023-05-04T00:10:54.414Z,4.67
2023-05-04T00:13:23.525Z,4.47
2023-05-04T00:15:52.422Z,3.23
2023-05-04T00:18:22.447Z,7.63
2023-05-04T00:20:52.400Z,5.17
2023-05-04T00:23:22.043Z,5.23
2023-05-04T00:25:53.326Z,4.40
2023-05-04T00:28:22.096Z,6.10
2023-05-04T00:30:57.162Z,7.13
2023-05-04T00:33:25.998Z,6.73
2023-05-04T00:35:54.631Z,10.60
2023-05-04T00:38:25.305Z,10.63
2023-05-04T00:40:53.810Z,10.83
2023-05-04T00:43:22.293Z,10.13
2023-05-04T00:45:50.862Z,6.13
2023-05-04T00:48:19.477Z,9.23
2023-05-04T00:50:51.004Z,7.00
2023-05-04T00:53:19.451Z,10.80
2023-05-04T00:55:50.403Z,5.67
2023-05-04T00:58:19.946Z,6.57
2023-05-04T01:00:48.642Z,7.83
2023-05-04T01:03:18.251Z,8.80
2023-05-04T01:05:55.001Z,8.83
2023-05-04T01:08:31.738Z,10.27
2023-05-04T01:11:08.513Z,8.20
2023-05-04T01:13:39.400Z,10.17
2023-05-04T01:16:08.782Z,5.90
2023-05-04T01:18:37.922Z,9.20
2023-05-04T01:21:07.038Z,7.00
2023-05-04T01:23:37.566Z,5.70
2023-05-04T01:26:16.298Z,6.20
2023-05-04T01:28:51.844Z,5.83
2023-05-04T01:31:24.359Z,7.83
2023-05-04T01:33:55.473Z,6.27
2023-05-04T01:36:25.720Z,8.43
2023-05-04T01:38:59.777Z,7.40
2023-05-04T01:41:30.392Z,6.47
2023-05-04T01:44:00.232Z,5.47
2023-05-04T01:46:29.080Z,9.13
2023-05-04T01:48:57.826Z,9.27
2023-05-04T01:51:26.370Z,10.40
2023-05-04T01:53:56.753Z,12.93
2023-05-04T01:56:26.300Z,7.37
2023-05-04T01:58:54.891Z,7.97
2023-05-04T02:01:23.193Z,7.00
2023-05-04T02:03:52.013Z,7.67
2023-05-04T02:06:21.334Z,5.40
2023-05-04T02:08:50.335Z,7.00
2023-05-04T02:11:20.667Z,7.03
2023-05-04T02:13:49.422Z,5.87
2023-05-04T02:16:18.850Z,6.97
2023-05-04T02:18:47.783Z,8.17
2023-05-04T02:21:18.323Z,6.73
2023-05-04T02:23:47.720Z,7.10
2023-05-04T02:26:16.099Z,6.77
2023-05-04T02:28:46.850Z,7.07
2023-05-04T02:31:15.337Z,8.70
2023-05-04T02:33:43.877Z,6.83
2023-05-04T02:36:12.185Z,7.93
2023-05-04T02:38:43.555Z,5.83
2023-05-04T02:41:13.758Z,8.20
2023-05-04T02:43:42.575Z,6.17
2023-05-04T02:46:12.722Z,6.33
2023-05-04T02:48:41.963Z,6.40
2023-05-04T02:51:10.605Z,5.70
2023-05-04T02:53:40.218Z,5.80
2023-05-04T02:56:10.719Z,6.23
2023-05-04T02:58:39.053Z,7.57
2023-05-04T03:01:08.177Z,5.53
2023-05-04T03:03:38.006Z,7.70
2023-05-04T03:06:08.783Z,8.33
2023-05-04T03:08:37.203Z,10.20
2023-05-04T03:11:06.116Z,7.17
2023-05-04T03:13:36.356Z,9.60
2023-05-04T03:16:06.732Z,6.70
2023-05-04T03:18:35.273Z,8.23
2023-05-04T03:21:07.989Z,8.67
2023-05-04T03:23:42.252Z,7.70
2023-05-04T03:26:11.288Z,7.87
2023-05-04T03:28:39.718Z,8.43
2023-05-04T03:31:09.222Z,11.07
2023-05-04T03:33:37.797Z,9.50
2023-05-04T03:36:10.659Z,7.47
2023-05-04T03:38:42.558Z,7.80
2023-05-04T03:41:12.733Z,12.50
2023-05-04T03:43:42.585Z,6.13
2023-05-04T03:46:13.203Z,6.73
2023-05-04T03:48:42.446Z,8.60
2023-05-04T03:51:16.916Z,10.63
2023-05-04T03:53:47.235Z,6.83
2023-05-04T03:56:18.481Z,8.57
2023-05-04T03:58:48.272Z,10.07
2023-05-04T04:01:22.906Z,11.27
2023-05-04T04:03:51.507Z,12.07
2023-05-04T04:06:24.745Z,12.10
2023-05-04T04:08:54.474Z,9.07
2023-05-04T04:11:22.893Z,8.83
2023-05-04T04:13:52.109Z,14.80
2023-05-04T04:16:21.695Z,9.50
2023-05-04T04:18:51.027Z,11.53
2023-05-04T04:21:20.377Z,12.07
2023-05-04T04:23:50.533Z,15.77
2023-05-04T04:26:19.202Z,24.93
2023-05-04T04:28:50.975Z,17.77
2023-05-04T04:31:20.132Z,17.10
2023-05-04T04:33:48.966Z,14.43
2023-05-04T04:36:18.243Z,16.90
2023-05-04T04:38:46.922Z,11.73
2023-05-04T04:41:19.040Z,15.63
2023-05-04T04:43:48.082Z,12.87
2023-05-04T04:46:17.183Z,15.03
2023-05-04T04:48:45.789Z,13.20
2023-05-04T04:51:14.495Z,10.77
2023-05-04T04:53:43.475Z,8.70
2023-05-04T04:56:12.466Z,10.00
2023-05-04T04:58:42.527Z,12.90
2023-05-04T05:01:17.695Z,9.63
2023-05-04T05:03:46.631Z,11.83
2023-05-04T05:06:15.335Z,8.70
2023-05-04T05:08:44.285Z,11.37
2023-05-04T05:11:13.784Z,10.57
2023-05-04T05:13:44.014Z,22.87
2023-05-04T05:16:13.842Z,25.57
2023-05-04T05:18:43.156Z,28.53
2023-05-04T05:21:13.516Z,32.30
2023-05-04T05:23:42.762Z,22.90
2023-05-04T05:26:11.868Z,19.30
2023-05-04T05:28:40.598Z,25.27
2023-05-04T05:31:11.664Z,17.70
2023-05-04T05:33:41.521Z,16.53
2023-05-04T05:36:10.758Z,18.03
2023-05-04T05:38:42.068Z,13.23
2023-05-04T05:41:10.785Z,13.37
2023-05-04T05:43:41.872Z,10.67
2023-05-04T05:46:13.157Z,12.17
2023-05-04T05:48:47.611Z,14.13
2023-05-04T05:51:17.769Z,15.27
2023-05-04T05:53:49.638Z,15.30
2023-05-04T05:56:18.310Z,13.90
2023-05-04T05:58:48.294Z,17.23
2023-05-04T06:01:20.586Z,16.83
2023-05-04T06:03:51.837Z,11.10
2023-05-04T06:06:21.131Z,10.20
2023-05-04T06:08:51.311Z,14.13
2023-05-04T06:11:21.554Z,10.77
2023-05-04T06:13:50.556Z,10.70
2023-05-04T06:16:21.519Z,14.00
2023-05-04T06:18:52.904Z,12.40
2023-05-04T06:21:25.616Z,9.80
2023-05-04T06:23:55.222Z,12.77
2023-05-04T06:26:25.792Z,13.03
2023-05-04T06:28:55.724Z,10.57
2023-05-04T06:31:25.812Z,11.60
2023-05-04T06:33:55.585Z,17.13
2023-05-04T06:36:26.668Z,8.23
2023-05-04T06:38:56.029Z,13.23
2023-05-04T06:41:25.206Z,11.43
2023-05-04T06:43:56.174Z,12.00
2023-05-04T06:46:28.518Z,13.07
2023-05-04T06:48:59.405Z,9.10
2023-05-04T06:51:29.397Z,11.63
2023-05-04T06:53:59.846Z,11.90
2023-05-04T06:56:29.438Z,9.70
2023-05-04T06:59:02.424Z,10.67
2023-05-04T07:01:35.192Z,12.87
2023-05-04T07:04:06.813Z,11.33
2023-05-04T07:06:37.017Z,9.70
2023-05-04T07:09:07.901Z,8.33
2023-05-04T07:11:37.357Z,9.80
2023-05-04T07:14:09.767Z,7.70
2023-05-04T07:16:41.026Z,11.20
2023-05-04T07:19:10.947Z,9.23
2023-05-04T07:21:45.918Z,11.70
2023-05-04T07:24:18.849Z,9.00
2023-05-04T07:26:52.055Z,8.53
2023-05-04T07:29:23.636Z,8.53
2023-05-04T07:31:55.471Z,8.10
2023-05-04T07:34:37.916Z,7.37
2023-05-04T07:37:13.034Z,6.77
2023-05-04T07:39:45.050Z,6.87
2023-05-04T07:42:14.382Z,8.60
2023-05-04T07:44:43.268Z,7.63
2023-05-04T07:47:13.560Z,6.23
2023-05-04T07:49:42.090Z,8.27
2023-05-04T07:52:10.586Z,7.40
2023-05-04T07:54:42.113Z,7.03
2023-05-04T07:57:10.788Z,11.77
2023-05-04T07:59:46.318Z,8.90
2023-05-04T08:02:18.647Z,6.13
2023-05-04T08:04:50.378Z,6.30
2023-05-04T08:07:29.750Z,5.80
2023-05-04T08:10:01.306Z,8.60
2023-05-04T08:12:29.742Z,6.33
2023-05-04T08:15:00.545Z,4.90
2023-05-04T08:17:31.043Z,4.83
2023-05-04T08:19:59.890Z,5.93
2023-05-04T08:22:31.216Z,6.43
2023-05-04T08:24:59.997Z,5.83
2023-05-04T08:27:30.359Z,5.97
2023-05-04T08:30:02.220Z,4.97
2023-05-04T08:32:36.995Z,5.27
2023-05-04T08:35:08.547Z,5.20
2023-05-04T08:37:56.107Z,4.20
2023-05-04T08:40:26.182Z,5.17
2023-05-04T08:42:55.311Z,4.33
2023-05-04T08:45:23.902Z,4.17
2023-05-04T08:47:54.031Z,6.00
2023-05-04T08:50:22.687Z,8.07
2023-05-04T08:52:52.434Z,5.17
2023-05-04T08:55:23.260Z,6.87
2023-05-04T08:58:18.243Z,3.37
2023-05-04T09:00:50.891Z,5.80
2023-05-04T09:03:29.845Z,5.00
2023-05-04T09:06:02.701Z,3.20
2023-05-04T09:08:33.789Z,3.77
2023-05-04T09:11:12.267Z,2.80
2023-05-04T09:19:39.351Z,2.53
2023-05-04T09:22:17.998Z,2.80
2023-05-04T09:24:47.020Z,2.50
2023-05-04T09:27:18.566Z,2.80
2023-05-04T09:29:55.422Z,2.80
2023-05-04T09:32:24.313Z,3.30
2023-05-04T09:34:57.949Z,5.47
2023-05-04T09:37:26.383Z,2.13
2023-05-04T09:40:02.279Z,2.50
2023-05-04T09:42:31.090Z,3.30
2023-05-04T09:45:07.363Z,2.17
2023-05-04T09:47:39.394Z,3.53
2023-05-04T09:50:20.136Z,2.63
2023-05-04T09:52:50.341Z,2.50
2023-05-04T09:55:22.546Z,1.80
2023-05-04T09:57:51.847Z,2.20
2023-05-04T10:00:24.205Z,1.90
2023-05-04T10:02:52.918Z,2.47
2023-05-04T10:05:26.326Z,1.87
2023-05-04T10:07:55.476Z,2.10
2023-05-04T10:10:24.631Z,2.70
2023-05-04T10:12:54.287Z,1.93
2023-05-04T10:15:25.073Z,2.10
2023-05-04T10:18:12.294Z,1.87
2023-05-04T10:21:04.142Z,1.50
2023-05-04T10:24:26.984Z,2.10
2023-05-04T10:27:10.345Z,1.70
2023-05-04T10:29:39.537Z,3.03
2023-05-04T10:32:19.527Z,1.83
2023-05-04T10:34:51.759Z,2.10
2023-05-04T10:37:23.185Z,1.77
2023-05-04T10:39:56.026Z,3.43
2023-05-04T10:42:26.397Z,2.10
2023-05-04T10:44:58.180Z,1.53
2023-05-04T10:47:33.227Z,1.60
2023-05-04T10:50:14.724Z,1.30
2023-05-04T10:52:50.242Z,2.00
2023-05-04T10:55:22.437Z,3.37
2023-05-04T10:58:20.168Z,1.67
2023-05-04T11:01:03.703Z,1.50
2023-05-04T11:07:08.521Z,3.43
2023-05-04T11:09:40.762Z,1.70
2023-05-04T11:12:24.373Z,1.77
2023-05-04T11:14:53.012Z,2.87
2023-05-04T11:17:49.087Z,2.10
2023-05-04T11:20:28.000Z,1.53
2023-05-04T11:22:57.116Z,2.30
2023-05-04T11:25:31.326Z,1.90
2023-05-04T11:28:02.274Z,2.60
2023-05-04T11:30:37.220Z,2.40
2023-05-04T11:33:13.541Z,3.70
2023-05-04T11:35:45.643Z,1.97
2023-05-04T11:38:20.678Z,2.20
2023-05-04T11:40:51.427Z,2.57
2023-05-04T11:43:22.666Z,7.73
2023-05-04T11:45:58.180Z,2.37
2023-05-04T11:48:27.149Z,1.97
2023-05-04T11:50:58.256Z,7.43
2023-05-04T11:53:28.145Z,2.20
2023-05-04T11:56:03.552Z,4.20
2023-05-04T11:58:33.329Z,2.50
2023-05-04T12:01:02.133Z,2.03
2023-05-04T12:03:44.070Z,2.30
2023-05-04T12:06:32.101Z,1.97
2023-05-04T12:09:11.382Z,2.90
2023-05-04T12:11:43.309Z,12.53
2023-05-04T12:14:17.256Z,9.63
2023-05-04T12:16:55.701Z,2.20
2023-05-04T12:19:27.643Z,2.57
2023-05-04T12:22:13.095Z,2.73
2023-05-04T12:24:43.225Z,3.00
2023-05-04T12:27:31.140Z,3.83
2023-05-04T12:29:59.585Z,6.43
2023-05-04T12:32:33.089Z,8.03
2023-05-04T12:35:21.861Z,2.30
2023-05-04T12:37:50.466Z,1.87
2023-05-04T12:40:28.439Z,2.17
2023-05-04T12:42:58.586Z,2.30
2023-05-04T12:45:26.993Z,3.40
2023-05-04T12:47:55.458Z,3.93
2023-05-04T12:50:26.613Z,2.33
2023-05-04T12:52:55.720Z,2.60
2023-05-04T12:55:38.970Z,2.13
2023-05-04T12:58:08.966Z,3.17
2023-05-04T13:00:39.102Z,3.37
2023-05-04T13:03:10.582Z,3.63
2023-05-04T13:05:45.003Z,2.90
2023-05-04T13:08:13.545Z,3.80
2023-05-04T13:10:42.757Z,3.20
2023-05-04T13:13:16.410Z,3.67
2023-05-04T13:15:45.423Z,4.60
2023-05-04T13:18:16.191Z,6.83
2023-05-04T13:20:44.762Z,2.40
2023-05-04T13:23:16.776Z,2.57
2023-05-04T13:25:45.564Z,10.40
2023-05-04T13:28:16.474Z,2.60
2023-05-04T13:31:05.559Z,3.50
2023-05-04T13:33:35.199Z,2.97
2023-05-04T13:36:04.042Z,3.37
2023-05-04T13:38:32.883Z,3.33
2023-05-04T13:41:02.339Z,2.87
2023-05-04T13:43:32.771Z,3.33
2023-05-04T13:46:04.670Z,4.03
2023-05-04T13:48:34.226Z,6.33
2023-05-04T13:51:08.119Z,5.10
2023-05-04T13:53:37.501Z,3.87
2023-05-04T13:56:09.351Z,4.20
2023-05-04T13:58:39.195Z,2.97
2023-05-04T14:01:08.222Z,3.87
2023-05-04T14:03:39.559Z,4.13
2023-05-04T14:06:08.754Z,5.80
2023-05-04T14:08:37.491Z,5.37
2023-05-04T14:11:09.792Z,7.80
2023-05-04T14:13:41.854Z,3.40
2023-05-04T14:16:11.901Z,4.40
2023-05-04T14:18:43.590Z,6.80
2023-05-04T14:21:15.220Z,4.77
2023-05-04T14:23:48.322Z,5.10
2023-05-04T14:26:19.304Z,4.47
2023-05-04T14:28:50.354Z,7.60
2023-05-04T14:31:19.018Z,4.90
2023-05-04T14:33:47.362Z,3.50
2023-05-04T14:36:18.142Z,4.10
2023-05-04T14:38:49.403Z,6.23
2023-05-04T14:41:21.717Z,4.17
2023-05-04T14:43:57.242Z,3.80
2023-05-04T14:46:37.345Z,4.90
2023-05-04T14:49:08.405Z,3.77
2023-05-04T14:55:16.342Z,5.03
2023-05-04T14:57:48.512Z,4.90
2023-05-04T15:00:21.555Z,10.73
2023-05-04T15:02:50.800Z,4.37
2023-05-04T15:05:51.598Z,4.10
2023-05-04T15:08:27.053Z,4.00
2023-05-04T15:17:00.127Z,10.80
2023-05-04T15:19:33.137Z,7.37
2023-05-04T15:22:01.685Z,4.83
2023-05-04T15:24:30.124Z,4.60
2023-05-04T15:27:01.302Z,3.60
2023-05-04T15:29:31.324Z,7.80
2023-05-04T15:32:01.843Z,5.57
2023-05-04T15:34:32.816Z,3.23
2023-05-04T15:37:01.226Z,4.40
2023-05-04T15:39:32.721Z,3.00
2023-05-04T15:42:04.097Z,2.70
2023-05-04T15:44:32.981Z,4.00
2023-05-04T15:47:06.487Z,4.97
2023-05-04T15:49:37.516Z,2.80
2023-05-04T15:52:10.677Z,3.07
2023-05-04T15:54:39.185Z,4.67
2023-05-04T15:57:09.213Z,3.20
2023-05-04T15:59:37.562Z,2.90
2023-05-04T16:02:08.192Z,2.90
2023-05-04T16:04:36.596Z,2.77
2023-05-04T16:07:05.066Z,2.37
2023-05-04T16:09:35.489Z,4.43
2023-05-04T16:12:05.578Z,4.00
2023-05-04T16:14:40.899Z,3.77
2023-05-04T16:17:10.734Z,3.83
2023-05-04T16:19:51.036Z,4.10
2023-05-04T16:22:23.037Z,6.00
2023-05-04T16:24:51.485Z,3.43
2023-05-04T16:27:19.941Z,3.57
2023-05-04T16:29:48.347Z,3.90
2023-05-04T16:32:18.442Z,4.70
2023-05-04T16:34:47.132Z,4.50
2023-05-04T16:37:20.762Z,4.87
2023-05-04T16:39:49.224Z,4.93
2023-05-04T16:42:19.057Z,5.73
2023-05-04T16:44:49.402Z,4.17
2023-05-04T16:47:20.582Z,2.70
2023-05-04T16:49:49.743Z,5.10
2023-05-04T16:52:19.017Z,5.63
2023-05-04T16:54:47.792Z,9.43
2023-05-04T16:57:17.326Z,6.40
2023-05-04T16:59:49.789Z,5.07
2023-05-04T17:02:29.312Z,7.60
2023-05-04T17:05:07.183Z,3.87
2023-05-04T17:07:41.873Z,4.13
2023-05-04T17:10:21.116Z,4.80
2023-05-04T17:12:56.582Z,6.00
2023-05-04T17:15:27.982Z,10.93
2023-05-04T17:18:05.198Z,7.40
2023-05-04T17:20:33.612Z,6.93
2023-05-04T17:23:03.960Z,4.53
2023-05-04T17:25:41.728Z,5.50
2023-05-04T17:28:23.284Z,3.50
2023-05-04T17:30:53.715Z,5.60
2023-05-04T17:33:27.208Z,6.17
2023-05-04T17:35:56.017Z,4.30
2023-05-04T17:38:25.085Z,6.40
2023-05-04T17:40:53.602Z,4.00
2023-05-04T17:43:23.113Z,4.60
2023-05-04T17:45:54.308Z,8.90
2023-05-04T17:48:28.947Z,3.37
2023-05-04T17:51:00.165Z,6.20
2023-05-04T17:53:43.452Z,5.37
2023-05-04T17:56:14.388Z,3.90
2023-05-04T17:58:47.633Z,4.40
2023-05-04T18:01:19.561Z,6.30
2023-05-04T18:03:52.192Z,3.33
2023-05-04T18:06:24.376Z,4.63
2023-05-04T18:08:53.221Z,3.63
2023-05-04T18:11:24.780Z,6.63
2023-05-04T18:13:59.018Z,2.93
2023-05-04T18:16:33.111Z,9.10
2023-05-04T18:19:07.054Z,3.87
2023-05-04T18:21:40.150Z,3.80
2023-05-04T18:24:12.131Z,2.90
2023-05-04T18:26:52.936Z,2.50
2023-05-04T18:29:22.540Z,2.50
2023-05-04T18:31:52.230Z,3.20
2023-05-04T18:34:23.910Z,3.33
2023-05-04T18:36:55.129Z,8.37
2023-05-04T18:39:26.239Z,5.00
2023-05-04T18:41:56.655Z,4.17
2023-05-04T18:44:25.878Z,3.23
2023-05-04T18:47:04.905Z,2.90
2023-05-04T18:49:35.267Z,2.67
2023-05-04T18:52:03.847Z,3.07
2023-05-04T18:54:34.965Z,2.97
2023-05-04T18:57:07.255Z,2.90
2023-05-04T18:59:36.818Z,3.03
2023-05-04T19:02:07.115Z,2.47
2023-05-04T19:04:38.306Z,2.30
2023-05-04T19:07:07.519Z,3.57
2023-05-04T19:09:40.413Z,5.20
2023-05-04T19:12:11.652Z,5.77
2023-05-04T19:14:40.695Z,4.30
2023-05-04T19:17:10.076Z,2.67
2023-05-04T19:19:40.254Z,3.97
2023-05-04T19:22:11.626Z,7.27
2023-05-04T19:24:41.932Z,5.07
2023-05-04T19:27:20.213Z,8.53
2023-05-04T19:29:48.945Z,3.80
2023-05-04T19:32:24.227Z,4.60
2023-05-04T19:34:56.204Z,8.00
2023-05-04T19:37:24.645Z,14.10
2023-05-04T19:39:58.510Z,44.93
2023-05-04T19:42:28.423Z,5.67
2023-05-04T19:44:57.349Z,3.90
2023-05-04T19:47:30.250Z,18.27
2023-05-04T19:50:00.242Z,6.73
2023-05-04T19:52:29.008Z,4.23
2023-05-04T19:54:57.640Z,4.17
2023-05-04T19:57:28.194Z,6.50
2023-05-04T19:59:58.003Z,4.10
2023-05-04T20:02:27.844Z,4.20
2023-05-04T20:04:59.938Z,3.93
2023-05-04T20:07:31.741Z,6.23
2023-05-04T20:10:00.574Z,6.10
2023-05-04T20:12:29.422Z,5.60
2023-05-04T20:14:59.613Z,7.83
2023-05-04T20:17:31.124Z,3.80
2023-05-04T20:20:02.958Z,4.47
2023-05-04T20:22:33.845Z,4.00
2023-05-04T20:25:03.146Z,4.53
2023-05-04T20:27:33.560Z,4.20
2023-05-04T20:30:02.102Z,2.80
2023-05-04T20:32:33.245Z,3.50
2023-05-04T20:35:02.297Z,4.10
2023-05-04T20:37:33.092Z,4.80
2023-05-04T20:40:03.528Z,4.00
2023-05-04T20:42:36.093Z,4.90
2023-05-04T20:45:06.290Z,9.93
2023-05-04T20:47:35.505Z,3.93
2023-05-04T20:50:05.556Z,5.17
2023-05-04T20:52:40.954Z,3.93
2023-05-04T20:55:11.516Z,3.73
2023-05-04T20:57:40.754Z,4.00
2023-05-04T21:00:11.548Z,4.43
2023-05-04T21:02:40.506Z,6.23
2023-05-04T21:05:10.209Z,4.20
2023-05-04T21:07:40.690Z,6.53
2023-05-04T21:10:11.691Z,5.20
2023-05-04T21:12:40.384Z,3.40
2023-05-04T21:15:11.347Z,6.00
2023-05-04T21:17:41.041Z,4.10
2023-05-04T21:20:10.913Z,8.40
2023-05-04T21:22:41.332Z,5.97
2023-05-04T21:25:10.700Z,4.83
2023-05-04T21:27:39.034Z,5.47
2023-05-04T21:30:10.330Z,5.27
2023-05-04T21:32:40.626Z,12.60
2023-05-04T21:35:10.342Z,5.80
2023-05-04T21:37:40.843Z,6.30
2023-05-04T21:40:12.366Z,5.67
2023-05-04T21:42:41.643Z,4.50
2023-05-04T21:45:12.599Z,7.23
2023-05-04T21:47:41.438Z,5.20
2023-05-04T21:50:11.513Z,4.30
2023-05-04T21:52:42.446Z,10.03
2023-05-04T21:55:11.545Z,6.30
2023-05-04T21:57:42.009Z,5.20
2023-05-04T22:00:17.676Z,6.53
2023-05-04T22:02:48.949Z,4.50
2023-05-04T22:05:22.589Z,6.47
2023-05-04T22:07:53.318Z,6.10
2023-05-04T22:10:22.718Z,5.33
2023-05-04T22:12:51.223Z,7.80
2023-05-04T22:15:20.028Z,6.00
2023-05-04T22:17:49.331Z,10.87
2023-05-04T22:20:18.684Z,6.90
2023-05-04T22:22:49.410Z,5.83
2023-05-04T22:25:21.047Z,4.63
2023-05-04T22:27:52.680Z,5.20
2023-05-04T22:30:23.363Z,5.77
2023-05-04T22:32:51.873Z,6.60
2023-05-04T22:35:22.576Z,6.00
2023-05-04T22:37:53.410Z,8.07
2023-05-04T22:40:23.332Z,5.07
2023-05-04T22:42:51.868Z,8.23
2023-05-04T22:45:21.044Z,6.83
2023-05-04T22:47:51.500Z,5.57
2023-05-04T22:50:20.414Z,8.60
2023-05-04T22:52:49.915Z,5.27
2023-05-04T22:55:19.389Z,7.23
2023-05-04T22:57:49.603Z,6.60
2023-05-04T23:00:21.171Z,9.43
2023-05-04T23:02:52.956Z,8.40
2023-05-04T23:05:22.665Z,6.47
2023-05-04T23:07:54.182Z,9.13
2023-05-04T23:10:23.300Z,10.93
2023-05-04T23:12:54.868Z,7.80
2023-05-04T23:15:25.803Z,9.47
2023-05-04T23:17:55.915Z,7.20
2023-05-04T23:20:24.627Z,6.47
2023-05-04T23:22:53.633Z,8.00
2023-05-04T23:25:22.583Z,9.30
2023-05-04T23:27:52.637Z,9.03
2023-05-04T23:30:21.070Z,7.13
2023-05-04T23:32:49.945Z,7.30
2023-05-04T23:35:18.877Z,7.30
2023-05-04T23:37:47.432Z,11.00
2023-05-04T23:40:16.354Z,7.83
2023-05-04T23:42:45.152Z,5.90
2023-05-04T23:45:15.322Z,6.87
2023-05-04T23:47:45.192Z,8.13
2023-05-04T23:50:13.801Z,6.33
2023-05-04T23:52:42.850Z,6.80
2023-05-04T23:55:12.816Z,6.17
2023-05-04T23:57:44.316Z,8.03
